Time;durP1;ratioP1;P1;durP2;ratioP2;P2;SDS_P1;SDS_P2;PMS_P1;PMS_P2;Temp;Humidity;BMP_temperature;BMP_pressure;BME280_temperature;BME280_humidity;BME280_pressure;Samples;Min_cycle;Max_cycle;Signal;HPM_P1;HPM_P2
2023/12/07 00:00:50;;;;;;;;;;;4.10;99.90;;;;;;2616198;54;19947;-68
2023/12/07 00:03:20;;;;;;;;;;;4.00;99.90;;;;;;2613620;54;19951;-67
2023/12/07 00:05:50;;;;;;;;;;;4.00;99.90;;;;;;2612928;54;19950;-68
2023/12/07 00:08:20;;;;;;;;;;;4.10;99.90;;;;;;2615251;47;19946;-68
2023/12/07 00:13:18;;;;;;;;;;;3.90;99.90;;;;;;2616201;54;19953;-70
2023/12/07 00:15:50;;;;;;;;;;;3.90;99.90;;;;;;2616255;54;19946;-69
2023/12/07 00:18:20;;;;;;;;;;;3.90;99.90;;;;;;2616295;54;19938;-69
2023/12/07 00:20:50;;;;;;;;;;;3.80;99.90;;;;;;2610414;54;19991;-69
2023/12/07 00:23:20;;;;;;;;;;;3.80;99.90;;;;;;2615539;54;19942;-69
2023/12/07 00:25:50;;;;;;;;;;;3.80;99.90;;;;;;2614734;54;20018;-70
2023/12/07 00:28:21;;;;;;;;;;;3.80;99.90;;;;;;2615627;54;19950;-69
2023/12/07 00:30:53;;;;;;;;;;;3.80;99.90;;;;;;2613923;54;19942;-70
2023/12/07 00:33:24;;;;;;;;;;;3.80;99.90;;;;;;2612794;50;19966;-70
2023/12/07 00:35:53;;;;;;;;;;;3.80;99.90;;;;;;2614804;47;19935;-69
2023/12/07 00:38:23;;;;;;;;;;;3.80;99.90;;;;;;2616297;54;19941;-69
2023/12/07 00:40:52;;;;;;;;;;;3.80;99.90;;;;;;2614942;54;19953;-70
2023/12/07 00:43:22;;;;;;;;;;;3.70;99.90;;;;;;2615434;54;19951;-69
2023/12/07 00:45:54;;;;;;;;;;;3.80;99.90;;;;;;2615133;54;19950;-69
2023/12/07 00:48:24;;;;;;;;;;;3.70;99.90;;;;;;2613157;52;20449;-70
2023/12/07 00:50:53;;;;;;;;;;;3.70;99.90;;;;;;2615158;54;19953;-69
2023/12/07 00:53:23;;;;;;;;;;;3.70;99.90;;;;;;2615988;54;19954;-70
2023/12/07 00:55:53;;;;;;;;;;;3.70;99.90;;;;;;2616555;54;19939;-69
2023/12/07 00:58:22;;;;;;;;;;;3.70;99.90;;;;;;2614807;54;19935;-69
2023/12/07 01:00:55;;;;;;;;;;;3.70;99.90;;;;;;2614342;54;19986;-70
2023/12/07 01:03:25;;;;;;;;;;;3.70;99.90;;;;;;2615927;54;22883;-70
2023/12/07 01:05:54;;;;;;;;;;;3.70;99.90;;;;;;2614896;54;19950;-69
2023/12/07 01:08:24;;;;;;;;;;;3.70;99.90;;;;;;2614488;54;19950;-70
2023/12/07 01:10:54;;;;;;;;;;;3.70;99.90;;;;;;2615771;54;19941;-70
2023/12/07 01:13:23;;;;;;;;;;;3.60;99.90;;;;;;2614365;54;19938;-69
2023/12/07 01:15:56;;;;;;;;;;;3.60;99.90;;;;;;2615629;54;19946;-69
2023/12/07 01:18:25;;;;;;;;;;;3.60;99.90;;;;;;2614073;46;20061;-69
2023/12/07 01:20:55;;;;;;;;;;;3.60;99.90;;;;;;2615909;54;20480;-70
2023/12/07 01:23:25;;;;;;;;;;;3.60;99.90;;;;;;2617592;47;19958;-71
2023/12/07 01:25:55;;;;;;;;;;;3.60;99.90;;;;;;2618089;54;19950;-70
2023/12/07 01:28:24;;;;;;;;;;;3.60;99.90;;;;;;2613486;54;20021;-69
2023/12/07 01:30:57;;;;;;;;;;;3.60;99.90;;;;;;2614420;54;19959;-69
2023/12/07 01:33:26;;;;;;;;;;;3.60;99.90;;;;;;2615645;54;20019;-70
2023/12/07 01:35:56;;;;;;;;;;;3.50;99.90;;;;;;2614897;54;20474;-69
2023/12/07 01:38:26;;;;;;;;;;;3.50;99.90;;;;;;2616486;47;19946;-70
2023/12/07 01:40:56;;;;;;;;;;;3.50;99.90;;;;;;2615331;47;19938;-69
2023/12/07 01:43:26;;;;;;;;;;;3.40;99.90;;;;;;2615022;47;19935;-70
2023/12/07 01:45:59;;;;;;;;;;;3.40;99.90;;;;;;2614913;54;19950;-70
2023/12/07 01:48:29;;;;;;;;;;;3.40;99.90;;;;;;2613093;47;20048;-69
2023/12/07 01:51:00;;;;;;;;;;;3.30;99.90;;;;;;2615908;54;19954;-70
2023/12/07 01:53:30;;;;;;;;;;;3.30;99.90;;;;;;2613395;54;19970;-69
2023/12/07 01:56:00;;;;;;;;;;;3.30;99.90;;;;;;2616066;47;19943;-69
2023/12/07 01:58:30;;;;;;;;;;;3.30;99.90;;;;;;2615171;47;19947;-70
2023/12/07 02:01:03;;;;;;;;;;;3.20;99.90;;;;;;2613555;54;19946;-70
2023/12/07 02:03:33;;;;;;;;;;;3.20;99.90;;;;;;2615200;54;19946;-70
2023/12/07 02:06:03;;;;;;;;;;;3.20;99.90;;;;;;2615482;54;19938;-70
2023/12/07 02:08:33;;;;;;;;;;;3.10;99.90;;;;;;2614302;54;20469;-69
2023/12/07 02:11:03;;;;;;;;;;;3.10;99.90;;;;;;2612995;54;19961;-69
2023/12/07 02:13:33;;;;;;;;;;;3.10;99.90;;;;;;2616759;54;19973;-69
2023/12/07 02:16:08;;;;;;;;;;;3.00;99.90;;;;;;2615877;46;20005;-69
2023/12/07 02:18:41;;;;;;;;;;;3.00;99.90;;;;;;2614427;54;20082;-70
2023/12/07 02:21:15;;;;;;;;;;;3.00;99.90;;;;;;2611299;39;20445;-69
2023/12/07 02:23:45;;;;;;;;;;;3.00;99.90;;;;;;2613035;54;19935;-69
2023/12/07 02:26:21;;;;;;;;;;;3.00;99.90;;;;;;2607753;39;20365;-70
2023/12/07 02:28:54;;;;;;;;;;;2.90;99.90;;;;;;2614311;54;19938;-69
2023/12/07 02:31:23;;;;;;;;;;;2.90;99.90;;;;;;2615047;54;20067;-69
2023/12/07 12:11:49;;;;;;;;;;;3.00;99.90;;;;;;2625675;46;20278;-78
2023/12/07 12:14:19;;;;;;;;;;;3.10;99.90;;;;;;2627909;39;20361;-78
2023/12/07 12:16:49;;;;;;;;;;;3.10;99.90;;;;;;2625769;54;20689;-82
2023/12/07 12:19:19;;;;;;;;;;;3.00;99.90;;;;;;2629534;54;19954;-84
2023/12/07 12:22:03;;;;;;;;;;;3.00;99.90;;;;;;2629150;54;19926;-83
2023/12/07 12:24:37;;;;;;;;;;;4.20;99.90;;;;;;2630112;54;19950;-82
2023/12/07 12:27:10;;;;;;;;;;;4.90;99.90;;;;;;2633209;39;20507;-81
2023/12/07 12:29:40;;;;;;;;;;;2.80;99.90;;;;;;2629616;47;19927;-81
2023/12/07 12:32:11;;;;;;;;;;;3.90;99.90;;;;;;2629158;54;19958;-81
2023/12/07 12:34:41;;;;;;;;;;;2.20;99.90;;;;;;2629300;54;19950;-82
2023/12/07 12:37:12;;;;;;;;;;;3.10;99.90;;;;;;2629547;47;19950;-81
2023/12/07 12:39:41;;;;;;;;;;;3.20;99.90;;;;;;2629701;47;19927;-80
2023/12/07 12:42:14;;;;;;;;;;;3.20;99.90;;;;;;2629471;54;19939;-85
2023/12/07 12:44:44;;;;;;;;;;;2.20;99.90;;;;;;2629840;47;19927;-82
2023/12/07 12:47:14;;;;;;;;;;;3.60;99.90;;;;;;2629385;47;19933;-83
2023/12/07 12:49:46;;;;;;;;;;;4.40;99.90;;;;;;2629744;47;19926;-83
2023/12/07 12:52:18;;;;;;;;;;;3.90;99.90;;;;;;2629094;47;19975;-84
2023/12/07 12:54:48;;;;;;;;;;;3.60;99.90;;;;;;2621411;47;20162;-69
2023/12/07 12:57:22;;;;;;;;;;;3.20;99.90;;;;;;2614928;47;20039;-70
2023/12/07 12:59:52;;;;;;;;;;;3.20;99.90;;;;;;2615786;54;19954;-69
2023/12/07 13:02:22;;;;;;;;;;;3.10;99.90;;;;;;2616717;51;19946;-70
2023/12/07 13:04:52;;;;;;;;;;;3.10;99.90;;;;;;2615580;54;19950;-70
2023/12/07 13:07:24;;;;;;;;;;;3.10;99.90;;;;;;2616221;47;20425;-70
2023/12/07 13:09:54;;;;;;;;;;;3.20;99.90;;;;;;2615471;54;19938;-69
2023/12/07 13:12:27;;;;;;;;;;;3.20;99.90;;;;;;2616194;54;19946;-70
2023/12/07 13:14:57;;;;;;;;;;;3.20;99.90;;;;;;2617324;47;19949;-69
2023/12/07 13:17:28;;;;;;;;;;;3.20;99.90;;;;;;2616996;54;20047;-69
2023/12/07 13:19:58;;;;;;;;;;;3.20;99.90;;;;;;2616191;54;19990;-70
2023/12/07 13:22:29;;;;;;;;;;;3.20;99.90;;;;;;2617148;54;19961;-71
2023/12/07 13:24:58;;;;;;;;;;;3.20;99.90;;;;;;2617019;54;19958;-70
2023/12/07 13:27:31;;;;;;;;;;;3.20;99.90;;;;;;2616522;47;19946;-70
2023/12/07 13:30:00;;;;;;;;;;;3.30;99.90;;;;;;2617439;47;19954;-70
2023/12/07 13:32:31;;;;;;;;;;;3.20;99.90;;;;;;2617210;54;19946;-69
2023/12/07 13:35:01;;;;;;;;;;;3.30;99.90;;;;;;2616385;51;19946;-71
2023/12/07 13:37:32;;;;;;;;;;;3.30;99.90;;;;;;2616992;54;19946;-69
2023/12/07 13:40:03;;;;;;;;;;;3.40;99.90;;;;;;2616455;54;19938;-68
2023/12/07 13:42:35;;;;;;;;;;;3.40;99.90;;;;;;2616020;54;19950;-69
2023/12/07 13:45:06;;;;;;;;;;;3.40;99.90;;;;;;2617283;47;19943;-70
2023/12/07 13:47:36;;;;;;;;;;;3.30;99.90;;;;;;2616401;54;19954;-70
2023/12/07 13:50:07;;;;;;;;;;;3.30;99.90;;;;;;2615833;54;19946;-68
2023/12/07 13:52:37;;;;;;;;;;;3.30;99.90;;;;;;2616644;47;19970;-70
2023/12/07 13:55:07;;;;;;;;;;;3.30;99.90;;;;;;2616378;54;20022;-70
2023/12/07 13:57:39;;;;;;;;;;;3.30;99.90;;;;;;2616300;39;20369;-71
2023/12/07 14:00:13;;;;;;;;;;;3.30;99.90;;;;;;2616806;54;19947;-70
2023/12/07 14:02:43;;;;;;;;;;;3.40;99.90;;;;;;2613953;54;20477;-69
2023/12/07 14:05:12;;;;;;;;;;;3.40;99.90;;;;;;2614624;54;19950;-69
2023/12/07 14:07:42;;;;;;;;;;;3.40;99.90;;;;;;2616878;54;19953;-69
2023/12/07 14:10:12;;;;;;;;;;;3.30;99.90;;;;;;2618587;54;19954;-69
2023/12/07 14:12:44;;;;;;;;;;;3.30;99.90;;;;;;2618325;54;19998;-68
2023/12/07 14:15:14;;;;;;;;;;;3.40;99.90;;;;;;2619529;54;19965;-68
2023/12/07 14:17:49;;;;;;;;;;;3.40;99.90;;;;;;2618824;47;19942;-69
2023/12/07 14:20:24;;;;;;;;;;;3.30;99.90;;;;;;2616234;54;19946;-68
2023/12/07 14:23:15;;;;;;;;;;;3.20;99.90;;;;;;2617390;54;19966;-68
2023/12/07 14:25:46;;;;;;;;;;;3.20;99.90;;;;;;2617089;54;19947;-68
2023/12/07 14:28:19;;;;;;;;;;;3.20;99.90;;;;;;2616758;54;19939;-69
2023/12/07 14:30:48;;;;;;;;;;;3.20;99.90;;;;;;2617219;46;19990;-69
2023/12/07 14:33:18;;;;;;;;;;;3.20;99.90;;;;;;2616225;54;19947;-69
2023/12/07 14:35:48;;;;;;;;;;;3.30;99.90;;;;;;2616778;54;19946;-69
2023/12/07 14:38:18;;;;;;;;;;;3.30;99.90;;;;;;2618039;39;20341;-69
2023/12/07 14:40:48;;;;;;;;;;;3.30;99.90;;;;;;2617134;39;20344;-68
2023/12/07 14:43:20;;;;;;;;;;;3.30;99.90;;;;;;2616797;54;19953;-68
2023/12/07 14:45:52;;;;;;;;;;;3.30;99.90;;;;;;2616209;54;19946;-68
2023/12/07 14:48:22;;;;;;;;;;;3.40;99.90;;;;;;2615939;54;19951;-69
2023/12/07 14:50:52;;;;;;;;;;;3.40;99.90;;;;;;2615995;47;19994;-69
2023/12/07 14:53:23;;;;;;;;;;;3.40;99.90;;;;;;2616704;54;19939;-70
2023/12/07 14:55:53;;;;;;;;;;;3.40;99.90;;;;;;2616629;54;19947;-69
2023/12/07 14:58:26;;;;;;;;;;;3.40;99.90;;;;;;2616570;54;19945;-68
2023/12/07 15:00:56;;;;;;;;;;;3.40;99.90;;;;;;2611489;54;19954;-72
2023/12/07 15:03:26;;;;;;;;;;;3.40;99.90;;;;;;2613783;54;19951;-71
2023/12/07 15:05:55;;;;;;;;;;;3.40;99.90;;;;;;2614519;54;19959;-70
2023/12/07 15:08:25;;;;;;;;;;;3.50;99.90;;;;;;2616241;46;20489;-70
2023/12/07 15:10:56;;;;;;;;;;;3.50;99.90;;;;;;2615833;54;19981;-68
2023/12/07 15:13:28;;;;;;;;;;;3.50;99.90;;;;;;2616030;54;19993;-70
2023/12/07 15:15:57;;;;;;;;;;;3.50;99.90;;;;;;2614194;54;19950;-70
2023/12/07 15:18:30;;;;;;;;;;;3.50;99.90;;;;;;2614613;54;19966;-69
2023/12/07 15:21:00;;;;;;;;;;;3.50;99.90;;;;;;2615982;50;19950;-70
2023/12/07 15:23:30;;;;;;;;;;;3.50;99.90;;;;;;2615095;54;20462;-70
2023/12/07 15:26:00;;;;;;;;;;;3.50;99.90;;;;;;2615557;54;20512;-71
2023/12/07 15:28:32;;;;;;;;;;;3.50;99.90;;;;;;2615036;47;19935;-70
2023/12/07 15:31:03;;;;;;;;;;;3.50;99.90;;;;;;2615569;54;19950;-70
2023/12/07 15:33:32;;;;;;;;;;;3.50;99.90;;;;;;2615572;54;19951;-71
2023/12/07 15:36:03;;;;;;;;;;;3.50;99.90;;;;;;2614952;54;20046;-70
2023/12/07 15:38:33;;;;;;;;;;;3.50;99.90;;;;;;2614427;54;20045;-69
2023/12/07 15:41:03;;;;;;;;;;;3.50;99.90;;;;;;2615057;54;19957;-70
2023/12/07 15:43:35;;;;;;;;;;;3.50;99.90;;;;;;2615050;54;19947;-70
2023/12/07 15:46:07;;;;;;;;;;;3.50;99.90;;;;;;2614940;54;19985;-70
2023/12/07 15:48:36;;;;;;;;;;;3.50;99.90;;;;;;2615660;54;19978;-70
2023/12/07 15:51:07;;;;;;;;;;;3.50;99.90;;;;;;2614912;54;20014;-70
2023/12/07 15:53:38;;;;;;;;;;;3.50;99.90;;;;;;2614501;54;20458;-71
2023/12/07 15:56:09;;;;;;;;;;;3.50;99.90;;;;;;2614235;54;20025;-69
2023/12/07 15:58:42;;;;;;;;;;;3.60;99.90;;;;;;2615972;54;20445;-70
2023/12/07 16:01:13;;;;;;;;;;;3.60;99.90;;;;;;2616228;39;20327;-70
2023/12/07 16:03:42;;;;;;;;;;;3.50;99.90;;;;;;2613591;46;20004;-69
2023/12/07 16:06:12;;;;;;;;;;;3.60;99.90;;;;;;2614955;54;19977;-69
2023/12/07 16:08:42;;;;;;;;;;;3.60;99.90;;;;;;2614241;54;20505;-70
2023/12/07 16:11:12;;;;;;;;;;;3.60;99.90;;;;;;2615566;54;19974;-70
2023/12/07 16:13:44;;;;;;;;;;;3.80;99.90;;;;;;2611238;47;19950;-73
2023/12/07 16:16:14;;;;;;;;;;;3.60;99.90;;;;;;2614068;47;20011;-72
2023/12/07 16:18:44;;;;;;;;;;;3.60;99.90;;;;;;2615998;54;20470;-72
2023/12/07 16:21:17;;;;;;;;;;;3.60;99.90;;;;;;2614682;54;19952;-72
2023/12/07 16:23:46;;;;;;;;;;;3.60;99.90;;;;;;2617195;54;19954;-73
2023/12/07 16:26:16;;;;;;;;;;;3.70;99.90;;;;;;2615579;47;20063;-72
2023/12/07 16:28:48;;;;;;;;;;;3.60;99.90;;;;;;2615728;54;19946;-70
2023/12/07 16:31:19;;;;;;;;;;;3.60;99.90;;;;;;2614867;54;20561;-71
2023/12/07 16:33:49;;;;;;;;;;;3.70;99.90;;;;;;2614991;47;19957;-71
2023/12/07 16:36:19;;;;;;;;;;;3.70;99.90;;;;;;2614564;39;20357;-72
2023/12/07 16:38:52;;;;;;;;;;;3.10;99.90;;;;;;2602725;54;19954;-72
2023/12/07 16:41:22;;;;;;;;;;;3.70;99.90;;;;;;2597401;54;19954;-74
2023/12/07 16:43:54;;;;;;;;;;;3.70;99.90;;;;;;2600328;54;19947;-71
2023/12/07 16:46:24;;;;;;;;;;;3.70;99.90;;;;;;2598859;47;19946;-68
2023/12/07 16:48:54;;;;;;;;;;;3.70;99.90;;;;;;2596155;47;19978;-68
2023/12/07 16:51:26;;;;;;;;;;;3.70;99.90;;;;;;2595361;54;19938;-69
2023/12/07 16:53:55;;;;;;;;;;;3.70;99.90;;;;;;2597588;54;20026;-69
2023/12/07 16:56:25;;;;;;;;;;;3.70;99.90;;;;;;2597579;46;19970;-69
2023/12/07 16:58:57;;;;;;;;;;;3.60;99.90;;;;;;2595685;47;20449;-70
2023/12/07 17:01:25;;;;;;;;;;;3.60;99.90;;;;;;2595886;47;20450;-70
2023/12/07 17:03:55;;;;;;;;;;;3.60;99.90;;;;;;2596993;47;21269;-69
2023/12/07 17:06:25;;;;;;;;;;;3.60;99.90;;;;;;2599207;54;19954;-68
2023/12/07 17:08:55;;;;;;;;;;;3.70;99.90;;;;;;2598715;46;19997;-68
2023/12/07 17:11:40;;;;;;;;;;;3.60;99.90;;;;;;2597854;54;19950;-67
2023/12/07 17:14:12;;;;;;;;;;;3.60;99.90;;;;;;2598128;47;20050;-69
2023/12/07 17:16:42;;;;;;;;;;;3.60;99.90;;;;;;2599964;54;20038;-68
2023/12/07 17:19:12;;;;;;;;;;;3.60;99.90;;;;;;2598076;54;19998;-68
2023/12/07 17:21:42;;;;;;;;;;;3.60;99.90;;;;;;2598234;47;19957;-68
2023/12/07 17:24:12;;;;;;;;;;;3.60;99.90;;;;;;2598431;54;19955;-68
2023/12/07 17:26:42;;;;;;;;;;;3.60;99.90;;;;;;2597732;54;20965;-67
2023/12/07 17:29:24;;;;;;;;;;;3.60;99.90;;;;;;2597656;54;19998;-68
2023/12/07 17:31:54;;;;;;;;;;;3.60;99.90;;;;;;2597834;54;19961;-68
2023/12/07 17:34:27;;;;;;;;;;;3.60;99.90;;;;;;2597760;51;20001;-68
2023/12/07 17:36:57;;;;;;;;;;;3.50;99.90;;;;;;2596821;39;20393;-67
2023/12/07 17:39:26;;;;;;;;;;;3.50;99.90;;;;;;2598991;47;19957;-67
2023/12/07 17:41:56;;;;;;;;;;;3.40;99.90;;;;;;2597695;54;19957;-68
2023/12/07 17:44:28;;;;;;;;;;;3.40;99.90;;;;;;2600161;39;20410;-68
2023/12/07 17:46:58;;;;;;;;;;;3.40;99.90;;;;;;2598642;48;19957;-69
2023/12/07 17:49:29;;;;;;;;;;;2.70;99.90;;;;;;2596940;54;19958;-67
2023/12/07 17:51:59;;;;;;;;;;;3.40;99.90;;;;;;2597818;54;19946;-67
2023/12/07 17:54:29;;;;;;;;;;;3.40;99.90;;;;;;2596729;39;20087;-67
2023/12/07 17:56:59;;;;;;;;;;;3.40;99.90;;;;;;2598864;39;20365;-68
2023/12/07 17:59:31;;;;;;;;;;;2.20;99.90;;;;;;2597362;54;19977;-68
2023/12/07 18:02:01;;;;;;;;;;;3.30;99.90;;;;;;2597459;53;19950;-68
2023/12/07 18:04:34;;;;;;;;;;;3.40;99.90;;;;;;2596901;47;20441;-67
2023/12/07 18:07:04;;;;;;;;;;;3.30;99.90;;;;;;2597090;54;19951;-67
2023/12/07 18:09:34;;;;;;;;;;;3.40;99.90;;;;;;2598916;54;19950;-69
2023/12/07 18:12:04;;;;;;;;;;;3.40;99.90;;;;;;2595896;54;19986;-68
2023/12/07 18:14:37;;;;;;;;;;;3.40;99.90;;;;;;2597257;47;20050;-73
2023/12/07 18:17:08;;;;;;;;;;;3.30;99.90;;;;;;2597473;47;19943;-70
2023/12/07 18:19:37;;;;;;;;;;;3.30;99.90;;;;;;2598453;54;20048;-71
2023/12/07 18:22:07;;;;;;;;;;;3.30;99.90;;;;;;2597276;47;19938;-70
2023/12/07 18:24:37;;;;;;;;;;;3.20;99.90;;;;;;2598916;47;19965;-71
2023/12/07 18:27:06;;;;;;;;;;;3.20;99.90;;;;;;2599691;47;20552;-68
2023/12/07 18:29:39;;;;;;;;;;;3.10;99.90;;;;;;2596994;54;20006;-69
2023/12/07 18:32:08;;;;;;;;;;;3.10;99.90;;;;;;2597925;47;19981;-68
2023/12/07 18:34:42;;;;;;;;;;;3.10;99.90;;;;;;2597191;47;19954;-70
2023/12/07 18:37:12;;;;;;;;;;;3.00;99.90;;;;;;2597454;48;19947;-68
2023/12/07 18:39:42;;;;;;;;;;;3.00;99.90;;;;;;2599331;47;19951;-67
2023/12/07 18:42:11;;;;;;;;;;;2.90;99.90;;;;;;2596904;54;19946;-67
2023/12/07 18:44:44;;;;;;;;;;;2.90;99.90;;;;;;2597194;47;19950;-67
2023/12/07 18:47:14;;;;;;;;;;;2.90;99.90;;;;;;2597285;54;19954;-66
2023/12/07 18:49:43;;;;;;;;;;;2.90;99.90;;;;;;2598678;54;20540;-67
2023/12/07 18:52:13;;;;;;;;;;;2.90;99.90;;;;;;2597298;50;21252;-68
2023/12/07 18:54:43;;;;;;;;;;;2.90;99.90;;;;;;2598627;54;19957;-69
2023/12/07 18:57:13;;;;;;;;;;;2.80;99.90;;;;;;2598067;54;19950;-67
2023/12/07 18:59:45;;;;;;;;;;;2.80;99.90;;;;;;2598056;54;19951;-66
2023/12/07 19:02:15;;;;;;;;;;;2.70;99.90;;;;;;2597878;54;19946;-65
2023/12/07 19:04:45;;;;;;;;;;;2.70;99.90;;;;;;2596722;54;19953;-66
2023/12/07 19:07:15;;;;;;;;;;;2.70;99.90;;;;;;2598430;54;19996;-66
2023/12/07 19:09:45;;;;;;;;;;;2.70;99.90;;;;;;2597870;54;19969;-69
2023/12/07 19:12:15;;;;;;;;;;;2.60;99.90;;;;;;2596771;54;19958;-66
2023/12/07 19:14:47;;;;;;;;;;;2.80;99.90;;;;;;2597462;54;21318;-67
2023/12/07 19:17:17;;;;;;;;;;;2.70;99.90;;;;;;2602201;54;19950;-68
2023/12/07 19:19:47;;;;;;;;;;;2.80;99.90;;;;;;2597206;54;19947;-70
2023/12/07 19:22:16;;;;;;;;;;;2.90;99.90;;;;;;2614856;54;20022;-70
2023/12/07 19:24:46;;;;;;;;;;;2.90;99.90;;;;;;2615341;54;19950;-70
2023/12/07 19:27:16;;;;;;;;;;;2.80;99.90;;;;;;2615503;46;19938;-72
2023/12/07 19:29:48;;;;;;;;;;;2.90;99.90;;;;;;2616156;47;19971;-72
2023/12/07 19:32:18;;;;;;;;;;;2.90;99.90;;;;;;2615438;47;19954;-73
2023/12/07 19:34:48;;;;;;;;;;;2.80;99.90;;;;;;2616418;47;19954;-74
2023/12/07 19:37:18;;;;;;;;;;;2.90;99.90;;;;;;2616781;47;19938;-74
2023/12/07 19:39:48;;;;;;;;;;;2.90;99.90;;;;;;2617044;47;19953;-74
2023/12/07 19:42:18;;;;;;;;;;;2.90;99.90;;;;;;2616451;47;19947;-74
2023/12/07 19:44:50;;;;;;;;;;;3.50;99.90;;;;;;2615945;54;19950;-72
2023/12/07 19:47:20;;;;;;;;;;;2.90;99.90;;;;;;2616152;54;19950;-72
2023/12/07 19:49:50;;;;;;;;;;;2.90;99.90;;;;;;2615471;54;20067;-73
2023/12/07 19:52:19;;;;;;;;;;;2.90;99.90;;;;;;2615213;47;19942;-71
2023/12/07 19:54:49;;;;;;;;;;;2.90;99.90;;;;;;2616572;39;20361;-72
2023/12/07 19:57:19;;;;;;;;;;;2.90;99.90;;;;;;2616194;50;19950;-69
2023/12/07 19:59:51;;;;;;;;;;;3.00;99.90;;;;;;2615596;54;19938;-72
2023/12/07 20:02:21;;;;;;;;;;;3.00;99.90;;;;;;2613997;47;19938;-69
2023/12/07 20:04:50;;;;;;;;;;;3.00;99.90;;;;;;2615667;54;19961;-74
2023/12/07 20:07:20;;;;;;;;;;;3.00;99.90;;;;;;2616730;54;19951;-73
2023/12/07 20:09:51;;;;;;;;;;;3.00;99.90;;;;;;2617117;47;19947;-73
2023/12/07 20:12:20;;;;;;;;;;;2.90;99.90;;;;;;2618805;47;20005;-72
2023/12/07 20:14:52;;;;;;;;;;;2.90;99.90;;;;;;2618983;47;19947;-73
2023/12/07 20:17:23;;;;;;;;;;;3.00;99.90;;;;;;2615790;47;19947;-72
2023/12/07 20:19:53;;;;;;;;;;;2.90;99.90;;;;;;2614686;47;19954;-72
2023/12/07 20:22:22;;;;;;;;;;;2.90;99.90;;;;;;2616446;54;19959;-73
2023/12/07 20:24:52;;;;;;;;;;;2.90;99.90;;;;;;2616540;54;19945;-73
2023/12/07 20:27:22;;;;;;;;;;;2.90;99.90;;;;;;2615475;47;20054;-73
2023/12/07 20:29:54;;;;;;;;;;;2.90;99.90;;;;;;2615987;54;19938;-71
2023/12/07 20:32:24;;;;;;;;;;;2.90;99.90;;;;;;2616292;54;19954;-72
2023/12/07 20:34:55;;;;;;;;;;;3.00;99.90;;;;;;2616510;51;19954;-72
2023/12/07 20:37:25;;;;;;;;;;;2.90;99.90;;;;;;2617169;54;19947;-72
2023/12/07 20:39:55;;;;;;;;;;;3.00;99.90;;;;;;2615813;47;20034;-70
2023/12/07 20:42:24;;;;;;;;;;;3.00;99.90;;;;;;2615324;47;19947;-72
2023/12/07 20:44:56;;;;;;;;;;;3.00;99.90;;;;;;2615160;47;19946;-73
2023/12/07 20:47:26;;;;;;;;;;;3.00;99.90;;;;;;2615007;47;19951;-68
2023/12/07 20:49:56;;;;;;;;;;;3.10;99.90;;;;;;2611887;54;19951;-69
2023/12/07 20:52:27;;;;;;;;;;;3.10;99.90;;;;;;2614230;54;20034;-69
2023/12/07 20:54:58;;;;;;;;;;;3.10;99.90;;;;;;2612550;54;20122;-68
2023/12/07 20:57:27;;;;;;;;;;;3.10;99.90;;;;;;2613560;54;19954;-67
2023/12/07 21:00:00;;;;;;;;;;;3.10;99.90;;;;;;2612489;54;19994;-68
2023/12/07 21:02:30;;;;;;;;;;;3.20;99.90;;;;;;2612086;47;19951;-68
2023/12/07 21:05:00;;;;;;;;;;;3.20;99.90;;;;;;2614523;54;20049;-68
2023/12/07 21:07:29;;;;;;;;;;;3.20;99.90;;;;;;2614146;47;19950;-68
2023/12/07 21:09:59;;;;;;;;;;;3.20;99.90;;;;;;2615566;54;19945;-67
2023/12/07 21:12:29;;;;;;;;;;;3.20;99.90;;;;;;2614452;54;19955;-67
2023/12/07 21:15:01;;;;;;;;;;;3.20;99.90;;;;;;2615941;54;20042;-67
2023/12/07 21:17:31;;;;;;;;;;;3.20;99.90;;;;;;2615345;54;20438;-70
2023/12/07 21:20:01;;;;;;;;;;;3.20;99.90;;;;;;2614753;54;19979;-67
2023/12/07 21:22:30;;;;;;;;;;;3.20;99.90;;;;;;2614807;54;19962;-68
2023/12/07 21:25:00;;;;;;;;;;;3.30;99.90;;;;;;2615928;47;19942;-68
2023/12/07 21:27:30;;;;;;;;;;;3.20;99.90;;;;;;2613824;54;19958;-68
2023/12/07 21:30:02;;;;;;;;;;;3.20;99.90;;;;;;2616170;54;19953;-68
2023/12/07 21:32:32;;;;;;;;;;;3.10;99.90;;;;;;2613318;54;19950;-67
2023/12/07 21:35:02;;;;;;;;;;;3.20;99.90;;;;;;2615287;54;20078;-67
2023/12/07 21:37:32;;;;;;;;;;;3.20;99.90;;;;;;2615096;50;19954;-68
2023/12/07 21:40:02;;;;;;;;;;;3.20;99.90;;;;;;2614520;54;19953;-67
2023/12/07 21:42:32;;;;;;;;;;;3.20;99.90;;;;;;2615381;46;19962;-68
2023/12/07 21:45:05;;;;;;;;;;;3.20;99.90;;;;;;2615821;54;19939;-68
2023/12/07 21:47:35;;;;;;;;;;;3.20;99.90;;;;;;2615058;50;19962;-68
2023/12/07 21:50:05;;;;;;;;;;;3.30;99.90;;;;;;2614969;54;19954;-68
2023/12/07 21:52:35;;;;;;;;;;;3.30;99.90;;;;;;2615781;39;20357;-68
2023/12/07 21:55:05;;;;;;;;;;;3.30;99.90;;;;;;2616053;54;19946;-67
2023/12/07 21:57:34;;;;;;;;;;;3.30;99.90;;;;;;2615482;54;19947;-67
2023/12/07 22:00:08;;;;;;;;;;;3.30;99.90;;;;;;2616209;54;20044;-68
2023/12/07 22:02:38;;;;;;;;;;;3.30;99.90;;;;;;2616020;54;19958;-66
2023/12/07 22:05:08;;;;;;;;;;;3.20;99.90;;;;;;2615572;54;19958;-69
2023/12/07 22:07:38;;;;;;;;;;;3.20;99.90;;;;;;2615400;54;19950;-67
2023/12/07 22:10:08;;;;;;;;;;;3.20;99.90;;;;;;2617163;54;19939;-68
2023/12/07 22:12:55;;;;;;;;;;;3.20;99.90;;;;;;2614893;47;19976;-68
2023/12/07 22:15:28;;;;;;;;;;;3.20;99.90;;;;;;2616532;47;19953;-68
2023/12/07 22:17:57;;;;;;;;;;;3.20;99.90;;;;;;2616689;47;19954;-67
2023/12/07 22:20:28;;;;;;;;;;;3.30;99.90;;;;;;2615909;39;20350;-66
2023/12/07 22:22:58;;;;;;;;;;;3.30;99.90;;;;;;2615204;54;19970;-67
2023/12/07 22:25:27;;;;;;;;;;;3.30;99.90;;;;;;2616894;54;20502;-67
2023/12/07 22:27:58;;;;;;;;;;;3.30;99.90;;;;;;2616413;54;19941;-68
2023/12/07 22:30:31;;;;;;;;;;;3.30;99.90;;;;;;2615991;54;19958;-69
2023/12/07 22:33:00;;;;;;;;;;;3.30;99.90;;;;;;2616372;39;20364;-68
2023/12/07 22:35:31;;;;;;;;;;;3.30;99.90;;;;;;2616077;54;20069;-68
2023/12/07 22:38:01;;;;;;;;;;;3.30;99.90;;;;;;2615132;54;20001;-67
2023/12/07 22:40:30;;;;;;;;;;;3.30;99.90;;;;;;2614473;54;19947;-65
2023/12/07 22:43:00;;;;;;;;;;;3.40;99.90;;;;;;2614751;47;19938;-68
2023/12/07 22:45:32;;;;;;;;;;;3.40;99.90;;;;;;2616377;39;20352;-67
2023/12/07 22:48:02;;;;;;;;;;;3.40;99.90;;;;;;2616478;54;19946;-67
2023/12/07 22:50:32;;;;;;;;;;;3.40;99.90;;;;;;2615455;54;19953;-67
2023/12/07 22:53:02;;;;;;;;;;;3.30;99.90;;;;;;2617486;54;19946;-67
2023/12/07 22:55:31;;;;;;;;;;;3.30;99.90;;;;;;2617691;54;20508;-67
2023/12/07 22:58:02;;;;;;;;;;;3.30;99.90;;;;;;2616714;54;19958;-67
2023/12/07 23:00:34;;;;;;;;;;;3.30;99.90;;;;;;2616242;50;20022;-68
2023/12/07 23:03:04;;;;;;;;;;;3.30;99.90;;;;;;2616817;54;19935;-68
2023/12/07 23:05:34;;;;;;;;;;;3.20;99.90;;;;;;2617031;47;19947;-68
2023/12/07 23:08:04;;;;;;;;;;;3.20;99.90;;;;;;2616398;47;19965;-68
2023/12/07 23:10:33;;;;;;;;;;;3.30;99.90;;;;;;2614825;54;19951;-68
2023/12/07 23:13:03;;;;;;;;;;;3.30;99.90;;;;;;2616795;54;19947;-68
2023/12/07 23:15:37;;;;;;;;;;;3.30;99.90;;;;;;2614450;54;19946;-68
2023/12/07 23:18:06;;;;;;;;;;;3.30;99.90;;;;;;2615361;54;19981;-67
2023/12/07 23:20:36;;;;;;;;;;;3.20;99.90;;;;;;2614392;54;19935;-68
2023/12/07 23:23:06;;;;;;;;;;;3.00;99.90;;;;;;2616323;54;19946;-68
2023/12/07 23:25:35;;;;;;;;;;;3.20;99.90;;;;;;2616898;47;19950;-68
2023/12/07 23:28:05;;;;;;;;;;;3.20;99.90;;;;;;2617398;39;20337;-67
2023/12/07 23:30:38;;;;;;;;;;;3.20;99.90;;;;;;2616001;47;20038;-69
2023/12/07 23:33:08;;;;;;;;;;;3.30;99.90;;;;;;2615456;47;19946;-68
2023/12/07 23:35:38;;;;;;;;;;;3.30;99.90;;;;;;2616340;54;20570;-67
2023/12/07 23:38:07;;;;;;;;;;;3.30;99.90;;;;;;2616903;39;20429;-66
2023/12/07 23:40:37;;;;;;;;;;;3.30;99.90;;;;;;2615269;54;19947;-67
2023/12/07 23:43:07;;;;;;;;;;;3.30;99.90;;;;;;2615989;54;19957;-67
2023/12/07 23:45:39;;;;;;;;;;;3.30;99.90;;;;;;2615482;47;19986;-68
2023/12/07 23:48:09;;;;;;;;;;;3.30;99.90;;;;;;2614618;47;20476;-68
2023/12/07 23:50:39;;;;;;;;;;;3.30;99.90;;;;;;2616164;31;20434;-67
2023/12/07 23:53:09;;;;;;;;;;;3.20;99.90;;;;;;2614209;47;19990;-67
2023/12/07 23:55:39;;;;;;;;;;;3.30;99.90;;;;;;2616430;54;19967;-67
2023/12/07 23:58:09;;;;;;;;;;;3.20;99.90;;;;;;2613409;54;19997;-67
